Time;durP1;ratioP1;P1;durP2;ratioP2;P2;SDS_P1;SDS_P2;PMS_P1;PMS_P2;Temp;Humidity;BMP_temperature;BMP_pressure;BME280_temperature;BME280_humidity;BME280_pressure;Samples;Min_cycle;Max_cycle;Signal;HPM_P1;HPM_P2
2022/12/15 00:39:36;;;;;;;;;;;;;;;-7.57;100.00;100574.06;5018699;28;19920;-61
2022/12/15 00:42:01;;;;;;;;;;;;;;;-7.56;100.00;100582.97;5018616;28;20285;-62
2022/12/15 00:44:27;;;;;;;;;;;;;;;-7.53;100.00;100575.34;5018402;28;20207;-62
2022/12/15 00:46:55;;;;;;;;;;;;;;;-7.48;100.00;100573.94;5018564;28;19913;-62
2022/12/15 01:22:21;;;;;;;;;;;;;;;-7.33;99.57;100592.66;5017930;28;19924;-61
2022/12/15 01:24:46;;;;;;;;;;;;;;;-7.33;99.66;100590.81;5017967;28;19917;-62
2022/12/15 01:27:12;;;;;;;;;;;;;;;-7.33;99.69;100598.03;5017924;28;19933;-62
2022/12/15 01:29:37;;;;;;;;;;;;;;;-7.34;99.49;100605.28;5017958;28;19913;-61
2022/12/15 01:32:03;;;;;;;;;;;;;;;-7.37;100.00;100601.09;5017907;28;20055;-63
2022/12/15 01:34:28;;;;;;;;;;;;;;;-7.37;100.00;100609.16;5018118;28;20379;-62
2022/12/15 01:36:53;;;;;;;;;;;;;;;-7.38;100.00;100609.38;5016845;28;19917;-60
2022/12/15 01:39:18;;;;;;;;;;;;;;;-7.34;99.37;100621.41;5017564;28;19924;-62
2022/12/15 01:41:43;;;;;;;;;;;;;;;-7.32;98.98;100610.44;5013864;28;20292;-62
2022/12/15 01:44:19;;;;;;;;;;;;;;;-7.30;98.84;100619.16;5014965;28;19920;-62
2022/12/15 01:46:46;;;;;;;;;;;;;;;-7.32;99.69;100611.28;5014878;28;19917;-63
2022/12/15 01:49:15;;;;;;;;;;;;;;;-7.33;99.93;100619.53;5010954;28;19913;-62
2022/12/15 01:51:43;;;;;;;;;;;;;;;-7.36;99.86;100623.44;5014749;28;20073;-62
2022/12/15 01:54:11;;;;;;;;;;;;;;;-7.37;99.08;100624.47;5014563;28;19967;-63
2022/12/15 01:56:39;;;;;;;;;;;;;;;-7.40;99.87;100614.09;5014756;28;19913;-62
2022/12/15 01:59:07;;;;;;;;;;;;;;;-7.39;99.97;100621.97;5014769;28;19914;-63
2022/12/15 02:01:33;;;;;;;;;;;;;;;-7.42;99.56;100619.69;5014239;28;20365;-62
2022/12/15 02:03:59;;;;;;;;;;;;;;;-7.47;99.66;100619.44;5014683;28;19914;-62
2022/12/15 02:06:25;;;;;;;;;;;;;;;-7.49;100.00;100626.00;5014570;28;19913;-62
2022/12/15 02:08:51;;;;;;;;;;;;;;;-7.54;99.96;100619.38;5014620;28;20706;-63
2022/12/15 02:11:29;;;;;;;;;;;;;;;-7.55;99.57;100627.59;5014529;28;19913;-62
2022/12/15 02:13:57;;;;;;;;;;;;;;;-7.58;99.97;100636.06;5014179;28;19953;-63
2022/12/15 02:16:31;;;;;;;;;;;;;;;-7.59;100.00;100637.91;5014352;28;20388;-63
2022/12/15 02:18:59;;;;;;;;;;;;;;;-7.60;99.93;100640.78;5013946;28;19924;-62
2022/12/15 02:21:24;;;;;;;;;;;;;;;-7.61;100.00;100649.88;5014337;28;19921;-63
2022/12/15 02:24:09;;;;;;;;;;;;;;;-7.63;100.00;100650.06;5014127;28;19917;-62
2022/12/15 02:26:37;;;;;;;;;;;;;;;-7.65;100.00;100649.41;5014058;28;20349;-62
2022/12/15 02:29:38;;;;;;;;;;;;;;;-7.66;100.00;100641.56;5013845;28;19914;-62
2022/12/15 02:32:08;;;;;;;;;;;;;;;-7.68;100.00;100650.63;4972456;28;19925;-62
2022/12/15 02:34:42;;;;;;;;;;;;;;;-7.69;100.00;100657.03;5006373;28;19914;-62
2022/12/15 02:37:14;;;;;;;;;;;;;;;-7.69;100.00;100661.56;5013628;28;19917;-62
2022/12/15 02:39:39;;;;;;;;;;;;;;;-7.71;100.00;100655.56;5013675;28;19918;-62
2022/12/15 02:42:05;;;;;;;;;;;;;;;-7.74;100.00;100658.63;5013923;28;19923;-62
2022/12/15 02:44:49;;;;;;;;;;;;;;;-7.75;100.00;100663.19;5009772;28;20318;-62
2022/12/15 02:47:17;;;;;;;;;;;;;;;-7.79;100.00;100645.75;5013380;28;20012;-62
2022/12/15 02:49:48;;;;;;;;;;;;;;;-7.81;100.00;100650.47;5013478;28;20471;-62
2022/12/15 02:52:21;;;;;;;;;;;;;;;-7.87;100.00;100652.06;5013132;28;20393;-62
2022/12/15 02:54:46;;;;;;;;;;;;;;;-7.88;100.00;100654.97;5013788;28;19913;-63
2022/12/15 02:57:17;;;;;;;;;;;;;;;-7.91;100.00;100658.84;5013814;28;19917;-63
2022/12/15 03:00:02;;;;;;;;;;;;;;;-7.93;100.00;100668.94;5013443;28;19924;-63
2022/12/15 03:02:30;;;;;;;;;;;;;;;-7.95;100.00;100665.63;5013263;28;19914;-62
2022/12/15 03:04:56;;;;;;;;;;;;;;;-7.97;100.00;100673.00;5013426;28;20324;-62
2022/12/15 03:07:22;;;;;;;;;;;;;;;-7.99;100.00;100659.78;5013238;28;20010;-63
2022/12/15 03:09:47;;;;;;;;;;;;;;;-8.01;100.00;100664.50;5013378;28;19944;-62
2022/12/15 03:12:12;;;;;;;;;;;;;;;-8.03;100.00;100661.16;5013078;28;20345;-63
2022/12/15 03:14:37;;;;;;;;;;;;;;;-8.04;100.00;100664.91;5012843;28;19921;-60
2022/12/15 03:17:05;;;;;;;;;;;;;;;-8.04;100.00;100662.22;5012852;28;20310;-60
2022/12/15 03:19:31;;;;;;;;;;;;;;;-8.04;100.00;100670.28;5013078;28;20012;-60
2022/12/15 03:21:56;;;;;;;;;;;;;;;-8.03;100.00;100657.66;5012771;28;20126;-60
2022/12/15 03:24:21;;;;;;;;;;;;;;;-8.02;100.00;100662.03;5012805;28;19918;-60
2022/12/15 03:26:48;;;;;;;;;;;;;;;-8.02;100.00;100670.91;5012656;28;20007;-61
2022/12/15 03:29:14;;;;;;;;;;;;;;;-8.03;100.00;100669.22;5012638;28;20012;-60
2022/12/15 03:31:39;;;;;;;;;;;;;;;-7.99;100.00;100681.28;5012408;28;19996;-60
2022/12/15 03:34:04;;;;;;;;;;;;;;;-7.97;100.00;100688.31;5012456;28;19951;-60
2022/12/15 03:36:29;;;;;;;;;;;;;;;-7.97;100.00;100689.13;5012656;28;19996;-60
2022/12/15 03:38:55;;;;;;;;;;;;;;;-7.98;100.00;100684.78;5008720;28;19968;-60
2022/12/15 03:41:20;;;;;;;;;;;;;;;-7.99;100.00;100675.91;5012537;28;20012;-60
2022/12/15 03:43:45;;;;;;;;;;;;;;;-7.98;100.00;100676.72;5012436;28;20354;-60
2022/12/15 03:46:10;;;;;;;;;;;;;;;-7.97;100.00;100681.06;5012755;28;19913;-60
2022/12/15 03:48:35;;;;;;;;;;;;;;;-7.96;100.00;100680.06;5012592;28;20399;-60
2022/12/15 03:51:01;;;;;;;;;;;;;;;-7.89;100.00;100693.56;5012443;28;20702;-60
2022/12/15 03:53:26;;;;;;;;;;;;;;;-7.88;100.00;100690.69;5012428;28;19920;-60
2022/12/15 03:55:51;;;;;;;;;;;;;;;-7.86;100.00;100690.53;5012631;28;20023;-60
2022/12/15 03:58:16;;;;;;;;;;;;;;;-7.85;100.00;100692.19;5012534;28;19921;-60
2022/12/15 04:00:41;;;;;;;;;;;;;;;-7.83;100.00;100698.19;5012600;28;19969;-60
2022/12/15 04:03:08;;;;;;;;;;;;;;;-7.81;100.00;100695.31;5011595;28;19918;-60
2022/12/15 04:05:33;;;;;;;;;;;;;;;-7.80;100.00;100680.88;5012297;28;19932;-60
2022/12/15 04:07:59;;;;;;;;;;;;;;;-7.80;100.00;100691.63;5012112;28;19928;-60
2022/12/15 04:10:26;;;;;;;;;;;;;;;-7.81;100.00;100687.28;5010460;28;20316;-60
2022/12/15 04:13:05;;;;;;;;;;;;;;;-7.82;100.00;100688.28;5012075;28;19971;-61
2022/12/15 04:15:31;;;;;;;;;;;;;;;-7.86;100.00;100685.97;5011779;28;19991;-61
2022/12/15 04:17:57;;;;;;;;;;;;;;;-7.86;100.00;100690.53;5011803;28;20358;-62
2022/12/15 04:20:22;;;;;;;;;;;;;;;-7.87;100.00;100683.47;5012025;28;19917;-62
2022/12/15 04:22:48;;;;;;;;;;;;;;;-7.88;100.00;100679.13;5011909;28;20016;-61
2022/12/15 05:33:36;;;;;;;;;;;;;;;-8.33;100.00;100714.91;5015038;28;20036;-62
2022/12/15 05:36:02;;;;;;;;;;;;;;;-8.34;100.00;100720.44;5014932;28;20281;-62
2022/12/15 05:38:27;;;;;;;;;;;;;;;-8.35;100.00;100719.63;5014876;28;19920;-62
2022/12/15 05:40:55;;;;;;;;;;;;;;;-8.34;100.00;100720.44;5014938;28;20024;-62
2022/12/15 05:43:20;;;;;;;;;;;;;;;-8.36;100.00;100726.00;5014356;28;19975;-62
2022/12/15 05:45:46;;;;;;;;;;;;;;;-8.36;100.00;100719.81;5014459;28;20234;-62
2022/12/15 05:48:11;;;;;;;;;;;;;;;-8.42;100.00;100721.38;5014709;28;19914;-62
2022/12/15 05:50:36;;;;;;;;;;;;;;;-8.38;100.00;100732.56;5014571;28;19976;-62
2022/12/15 05:53:01;;;;;;;;;;;;;;;-8.39;100.00;100736.28;5014768;28;19922;-62
2022/12/15 05:55:27;;;;;;;;;;;;;;;-8.42;100.00;100733.94;5012982;28;19914;-62
2022/12/15 05:57:52;;;;;;;;;;;;;;;-8.44;100.00;100738.66;5014383;28;19914;-61
2022/12/15 06:00:18;;;;;;;;;;;;;;;-8.46;100.00;100737.00;5014318;28;20252;-61
2022/12/15 06:02:44;;;;;;;;;;;;;;;-8.46;100.00;100734.34;5014380;28;19913;-61
2022/12/15 06:05:09;;;;;;;;;;;;;;;-8.47;100.00;100738.03;5014381;28;19917;-61
2022/12/15 06:07:35;;;;;;;;;;;;;;;-8.46;100.00;100747.75;5012826;28;19913;-61
2022/12/15 06:10:00;;;;;;;;;;;;;;;-8.44;100.00;100750.25;5014096;28;19919;-62
2022/12/15 06:12:25;;;;;;;;;;;;;;;-8.44;100.00;100750.25;5014187;28;19917;-62
2022/12/15 06:14:50;;;;;;;;;;;;;;;-8.42;100.00;100747.34;5014165;28;20031;-60
2022/12/15 06:17:15;;;;;;;;;;;;;;;-8.43;100.00;100748.38;5014460;28;20338;-61
2022/12/15 06:19:41;;;;;;;;;;;;;;;-8.45;100.00;100748.56;5014067;28;19918;-61
2022/12/15 06:22:06;;;;;;;;;;;;;;;-8.46;100.00;100753.13;5013948;28;19928;-59
2022/12/15 06:24:31;;;;;;;;;;;;;;;-8.50;100.00;100754.50;5013503;28;19921;-61
2022/12/15 06:26:56;;;;;;;;;;;;;;;-8.45;100.00;100753.94;5010784;28;19917;-60
2022/12/15 06:29:22;;;;;;;;;;;;;;;-8.41;100.00;100765.13;5012549;28;20433;-62
2022/12/15 06:31:47;;;;;;;;;;;;;;;-8.40;100.00;100756.88;5013072;28;19917;-61
2022/12/15 06:34:13;;;;;;;;;;;;;;;-8.42;100.00;100758.94;5013036;28;19917;-61
2022/12/15 06:36:39;;;;;;;;;;;;;;;-8.44;100.00;100755.59;5013171;28;19964;-61
2022/12/15 06:39:05;;;;;;;;;;;;;;;-8.44;100.00;100749.38;5013066;28;19913;-61
2022/12/15 06:41:30;;;;;;;;;;;;;;;-8.47;100.00;100746.06;5012780;28;20297;-60
2022/12/15 06:43:56;;;;;;;;;;;;;;;-8.46;100.00;100760.31;5012855;28;19924;-59
2022/12/15 06:46:21;;;;;;;;;;;;;;;-8.49;100.00;100756.19;5027855;28;19913;-60
2022/12/15 06:48:47;;;;;;;;;;;;;;;-8.51;100.00;100752.03;5012332;28;19914;-61
2022/12/15 06:51:13;;;;;;;;;;;;;;;-8.54;100.00;100758.56;5012108;28;19944;-61
2022/12/15 06:53:39;;;;;;;;;;;;;;;-8.54;100.00;100755.06;5012219;28;20381;-62
2022/12/15 06:56:07;;;;;;;;;;;;;;;-8.56;100.00;100760.63;5012176;28;19921;-63
2022/12/15 06:58:32;;;;;;;;;;;;;;;-8.56;100.00;100754.41;5012066;28;19925;-62
2022/12/15 07:00:57;;;;;;;;;;;;;;;-8.56;100.00;100770.50;5011909;28;19914;-62
2022/12/15 07:03:23;;;;;;;;;;;;;;;-8.58;100.00;100764.47;5012057;28;20008;-62
2022/12/15 07:05:58;;;;;;;;;;;;;;;-8.57;100.00;100771.50;5011991;28;20387;-63
2022/12/15 07:08:24;;;;;;;;;;;;;;;-8.51;100.00;100776.16;5011946;28;19918;-62
2022/12/15 07:10:49;;;;;;;;;;;;;;;-8.50;100.00;100775.16;5011775;28;19924;-61
2022/12/15 07:13:14;;;;;;;;;;;;;;;-8.50;100.00;100775.16;5011597;28;19987;-60
2022/12/15 07:15:40;;;;;;;;;;;;;;;-8.51;100.00;100774.31;5011765;28;19931;-61
2022/12/15 07:18:06;;;;;;;;;;;;;;;-8.54;100.00;100773.84;5012083;28;19936;-61
2022/12/15 07:20:32;;;;;;;;;;;;;;;-8.55;100.00;100775.69;5011602;28;20008;-61
2022/12/15 07:22:57;;;;;;;;;;;;;;;-8.55;100.00;100785.59;5007214;28;20012;-61
2022/12/15 07:25:23;;;;;;;;;;;;;;;-8.54;100.00;100784.56;5011015;28;20386;-61
2022/12/15 07:27:48;;;;;;;;;;;;;;;-8.53;100.00;100786.25;5010830;28;19913;-62
2022/12/15 07:30:14;;;;;;;;;;;;;;;-8.53;100.00;100784.38;5011287;28;19921;-62
2022/12/15 07:32:39;;;;;;;;;;;;;;;-8.51;100.00;100787.72;5010993;28;19920;-62
2022/12/15 07:35:06;;;;;;;;;;;;;;;-8.51;100.00;100789.59;5011161;28;19913;-62
2022/12/15 07:37:31;;;;;;;;;;;;;;;-8.53;100.00;100781.69;5010650;28;20564;-61
2022/12/15 07:39:57;;;;;;;;;;;;;;;-8.54;100.00;100779.19;5011793;28;20404;-61
2022/12/15 07:42:22;;;;;;;;;;;;;;;-8.56;100.00;100781.22;5009358;28;19917;-61
2022/12/15 07:44:47;;;;;;;;;;;;;;;-8.56;100.00;100784.75;5008940;28;20609;-61
2022/12/15 07:47:12;;;;;;;;;;;;;;;-8.55;100.00;100789.13;5009314;28;20408;-62
2022/12/15 07:49:38;;;;;;;;;;;;;;;-8.54;100.00;100784.56;5009177;28;19914;-61
2022/12/15 07:52:03;;;;;;;;;;;;;;;-8.54;100.00;100790.75;5009837;28;20037;-61
2022/12/15 07:54:29;;;;;;;;;;;;;;;-8.53;100.00;100802.34;5009965;28;19948;-62
2022/12/15 07:56:54;;;;;;;;;;;;;;;-8.53;100.00;100797.78;5011330;28;19920;-61
2022/12/15 07:59:19;;;;;;;;;;;;;;;-8.51;100.00;100797.63;5012119;28;20274;-62
2022/12/15 08:01:45;;;;;;;;;;;;;;;-8.51;100.00;100793.09;5012276;28;20370;-62
2022/12/15 08:04:10;;;;;;;;;;;;;;;-8.49;100.00;100798.25;5012216;28;19914;-62
2022/12/15 08:06:35;;;;;;;;;;;;;;;-8.47;100.00;100804.28;5012291;28;19913;-62
2022/12/15 08:09:00;;;;;;;;;;;;;;;-8.44;100.00;100805.72;5012335;28;19913;-62
2022/12/15 08:11:26;;;;;;;;;;;;;;;-8.44;100.00;100803.91;5012205;28;19913;-62
2022/12/15 08:13:51;;;;;;;;;;;;;;;-8.40;100.00;100807.88;5012086;28;19921;-62
2022/12/15 08:16:17;;;;;;;;;;;;;;;-8.39;100.00;100817.59;5011052;28;19941;-61
2022/12/15 08:18:42;;;;;;;;;;;;;;;-8.36;100.00;100811.06;4993744;28;19988;-62
2022/12/15 08:21:08;;;;;;;;;;;;;;;-8.31;100.00;100814.00;5006488;28;19925;-62
2022/12/15 08:23:34;;;;;;;;;;;;;;;-8.30;100.00;100821.88;5011136;28;19921;-62
2022/12/15 08:26:04;;;;;;;;;;;;;;;-8.26;100.00;100824.19;5012048;28;19913;-62
2022/12/15 08:28:31;;;;;;;;;;;;;;;-8.21;100.00;100835.22;5012227;28;19960;-62
2022/12/15 08:31:00;;;;;;;;;;;;;;;-8.17;100.00;100826.59;5012346;28;19913;-62
2022/12/15 08:33:26;;;;;;;;;;;;;;;-8.12;100.00;100815.31;5012041;28;19914;-61
2022/12/15 08:35:55;;;;;;;;;;;;;;;-8.06;100.00;100819.13;5012176;28;19920;-63
2022/12/15 08:38:21;;;;;;;;;;;;;;;-8.02;100.00;100823.13;5012347;28;20452;-63
2022/12/15 08:40:46;;;;;;;;;;;;;;;-8.00;100.00;100821.09;5013082;28;20017;-65
2022/12/15 08:43:11;;;;;;;;;;;;;;;-7.96;100.00;100830.44;5012429;28;19976;-67
2022/12/15 08:45:39;;;;;;;;;;;;;;;-7.91;100.00;100821.81;5012436;28;19914;-63
2022/12/15 08:48:04;;;;;;;;;;;;;;;-7.87;100.00;100831.19;5012528;28;19921;-64
2022/12/15 08:50:29;;;;;;;;;;;;;;;-7.82;100.00;100834.13;5014545;28;20413;-63
2022/12/15 08:52:54;;;;;;;;;;;;;;;-7.76;100.00;100832.56;5024273;28;19960;-64
2022/12/15 08:55:22;;;;;;;;;;;;;;;-7.71;100.00;100830.19;5011510;28;19940;-64
2022/12/15 08:57:47;;;;;;;;;;;;;;;-7.68;100.00;100829.78;5005497;28;19917;-63
2022/12/15 09:00:12;;;;;;;;;;;;;;;-7.62;100.00;100828.22;5013194;28;20004;-63
2022/12/15 09:02:38;;;;;;;;;;;;;;;-7.57;100.00;100844.63;4999281;28;19917;-64
2022/12/15 09:05:05;;;;;;;;;;;;;;;-7.53;100.00;100841.38;5003049;28;19918;-64
2022/12/15 09:07:30;;;;;;;;;;;;;;;-7.48;100.00;100848.03;5027192;28;19917;-64
2022/12/15 09:09:55;;;;;;;;;;;;;;;-7.43;100.00;100842.94;5015245;28;19913;-64
2022/12/15 09:12:20;;;;;;;;;;;;;;;-7.39;100.00;100847.75;5015278;28;19920;-64
2022/12/15 09:14:45;;;;;;;;;;;;;;;-7.34;100.00;100852.56;5012442;28;19917;-64
2022/12/15 09:17:11;;;;;;;;;;;;;;;-7.29;100.00;100862.75;5015275;28;20246;-64
2022/12/15 09:19:36;;;;;;;;;;;;;;;-7.23;100.00;100857.47;5015180;28;19913;-64
2022/12/15 09:22:02;;;;;;;;;;;;;;;-7.15;100.00;100856.50;5015536;28;19924;-64
2022/12/15 09:24:27;;;;;;;;;;;;;;;-7.09;100.00;100854.91;5014919;28;20479;-64
2022/12/15 09:26:53;;;;;;;;;;;;;;;-7.03;100.00;100864.91;5015158;28;19987;-64
2022/12/15 09:29:18;;;;;;;;;;;;;;;-6.97;100.00;100868.69;5014992;28;20036;-64
2022/12/15 09:31:45;;;;;;;;;;;;;;;-6.90;100.00;100869.63;5014859;28;19967;-64
2022/12/15 09:34:12;;;;;;;;;;;;;;;-6.84;100.00;100862.63;5015048;28;19961;-64
2022/12/15 09:36:37;;;;;;;;;;;;;;;-6.77;100.00;100867.06;5007837;28;19925;-64
2022/12/15 09:39:03;;;;;;;;;;;;;;;-6.69;100.00;100876.03;4995406;28;19918;-64
2022/12/15 09:41:29;;;;;;;;;;;;;;;-6.60;100.00;100885.66;4994991;28;20290;-64
2022/12/15 09:44:03;;;;;;;;;;;;;;;-6.53;100.00;100893.81;4994768;28;19944;-64
2022/12/15 09:46:43;;;;;;;;;;;;;;;-6.44;100.00;100892.66;4996089;28;20385;-64
2022/12/15 09:49:17;;;;;;;;;;;;;;;-6.38;100.00;100897.28;5014641;28;19920;-64
2022/12/15 09:51:45;;;;;;;;;;;;;;;-6.33;100.00;100889.44;5014458;28;19913;-64
2022/12/15 09:54:10;;;;;;;;;;;;;;;-6.26;100.00;100886.81;5014589;28;19925;-64
2022/12/15 09:56:38;;;;;;;;;;;;;;;-6.18;100.00;100891.22;5014689;28;19913;-64
2022/12/15 09:59:19;;;;;;;;;;;;;;;-6.11;100.00;100892.13;5014709;28;20289;-64
2022/12/15 10:01:44;;;;;;;;;;;;;;;-6.03;100.00;100894.69;5013611;28;20283;-64
2022/12/15 10:04:10;;;;;;;;;;;;;;;-5.95;100.00;100893.69;5014443;28;19917;-64
2022/12/15 10:06:39;;;;;;;;;;;;;;;-5.85;100.00;100896.00;5014459;28;19921;-63
2022/12/15 10:09:14;;;;;;;;;;;;;;;-5.76;100.00;100896.72;5011176;28;19979;-62
2022/12/15 10:11:45;;;;;;;;;;;;;;;-5.67;100.00;100895.53;5014054;28;19920;-65
2022/12/15 10:14:10;;;;;;;;;;;;;;;-5.62;100.00;100887.69;5013546;28;19940;-65
2022/12/15 10:16:43;;;;;;;;;;;;;;;-5.54;100.00;100898.28;5013869;28;20703;-65
2022/12/15 10:19:15;;;;;;;;;;;;;;;-5.45;100.00;100890.03;5014110;28;19920;-64
2022/12/15 10:21:40;;;;;;;;;;;;;;;-5.37;100.00;100888.03;5011746;28;19925;-64
2022/12/15 10:24:17;;;;;;;;;;;;;;;-5.30;100.00;100887.22;5001191;28;19913;-64
2022/12/15 10:26:42;;;;;;;;;;;;;;;-5.23;100.00;100882.69;5014166;28;19923;-65
2022/12/15 10:29:17;;;;;;;;;;;;;;;-5.15;100.00;100879.84;5013654;28;19996;-65
2022/12/15 10:31:48;;;;;;;;;;;;;;;-5.08;100.00;100880.69;5014132;28;19924;-65
2022/12/15 10:34:27;;;;;;;;;;;;;;;-5.01;100.00;100886.13;5013226;28;19967;-64
2022/12/15 10:36:53;;;;;;;;;;;;;;;-4.96;100.00;100883.63;5013705;28;19972;-65
2022/12/15 10:39:19;;;;;;;;;;;;;;;-4.88;100.00;100883.44;5013595;28;19920;-65
2022/12/15 10:41:45;;;;;;;;;;;;;;;-4.79;100.00;100889.53;5013575;28;19914;-64
2022/12/15 10:44:30;;;;;;;;;;;;;;;-4.73;100.00;100883.28;5013541;28;19921;-65
2022/12/15 10:46:55;;;;;;;;;;;;;;;-4.66;100.00;100893.25;5013691;28;19913;-65
2022/12/15 10:49:22;;;;;;;;;;;;;;;-4.60;100.00;100890.59;5013319;28;19920;-65
2022/12/15 10:51:59;;;;;;;;;;;;;;;-4.51;100.00;100885.84;5013174;28;20307;-65
2022/12/15 10:54:35;;;;;;;;;;;;;;;-4.44;100.00;100892.06;5013160;28;19917;-65
2022/12/15 10:57:13;;;;;;;;;;;;;;;-4.37;100.00;100889.41;5013043;28;20361;-65
2022/12/15 10:59:38;;;;;;;;;;;;;;;-4.28;100.00;100885.47;5013277;28;19966;-65
2022/12/15 11:02:22;;;;;;;;;;;;;;;-4.23;100.00;100898.34;5013041;28;19921;-65
2022/12/15 11:05:16;;;;;;;;;;;;;;;-4.18;100.00;100889.63;5010453;28;19913;-65
2022/12/15 11:08:11;;;;;;;;;;;;;;;-4.12;100.00;100886.94;5011905;28;19956;-65
2022/12/15 11:13:31;;;;;;;;;;;;;;;-4.00;100.00;100884.41;5013083;28;19975;-65
2022/12/15 11:16:08;;;;;;;;;;;;;;;-3.93;100.00;100879.03;5012915;28;19921;-65
2022/12/15 11:18:40;;;;;;;;;;;;;;;-3.86;100.00;100885.25;5012882;28;20024;-65
2022/12/15 11:21:17;;;;;;;;;;;;;;;-3.80;100.00;100880.88;5012810;28;19924;-65
2022/12/15 11:23:49;;;;;;;;;;;;;;;-3.75;100.00;100886.47;5012623;28;19913;-65
2022/12/15 11:26:29;;;;;;;;;;;;;;;-3.68;100.00;100883.75;5012704;28;19914;-65
2022/12/15 11:29:04;;;;;;;;;;;;;;;-3.64;100.00;100882.31;5012579;28;19944;-65
2022/12/15 11:31:35;;;;;;;;;;;;;;;-3.58;100.00;100883.31;5012762;28;19913;-65
2022/12/15 11:34:01;;;;;;;;;;;;;;;-3.55;100.00;100878.34;5012795;28;19974;-65
2022/12/15 11:36:29;;;;;;;;;;;;;;;-3.50;100.00;100873.13;5012840;28;19960;-65
2022/12/15 11:39:07;;;;;;;;;;;;;;;-3.45;100.00;100891.41;5012545;28;20365;-65
2022/12/15 11:41:38;;;;;;;;;;;;;;;-3.42;100.00;100882.88;5012716;28;19918;-65
2022/12/15 11:44:07;;;;;;;;;;;;;;;-3.36;100.00;100883.91;5012374;28;20008;-65
2022/12/15 11:46:37;;;;;;;;;;;;;;;-3.32;100.00;100887.84;5012548;28;20488;-65
2022/12/15 11:49:14;;;;;;;;;;;;;;;-3.28;100.00;100883.69;5013165;28;19971;-65
2022/12/15 11:51:42;;;;;;;;;;;;;;;-3.24;100.00;100884.06;5009724;28;19957;-66
2022/12/15 11:54:26;;;;;;;;;;;;;;;-3.19;100.00;100874.28;5012451;28;19917;-65
2022/12/15 11:57:21;;;;;;;;;;;;;;;-3.13;100.00;100881.53;5012397;28;19960;-65
2022/12/15 11:59:49;;;;;;;;;;;;;;;-3.04;100.00;100875.88;5009402;28;20289;-65
2022/12/15 12:02:32;;;;;;;;;;;;;;;-3.00;100.00;100869.81;5012180;28;20017;-65
2022/12/15 12:04:57;;;;;;;;;;;;;;;-2.91;100.00;100866.84;5012089;28;19918;-64
2022/12/15 12:07:44;;;;;;;;;;;;;;;-2.88;100.00;100863.72;4997297;28;20374;-64
2022/12/15 12:10:19;;;;;;;;;;;;;;;-2.85;100.00;100863.31;4992448;28;19921;-64
2022/12/15 12:12:49;;;;;;;;;;;;;;;-2.79;100.00;100870.56;4992796;28;19917;-65
2022/12/15 12:15:33;;;;;;;;;;;;;;;-2.76;100.00;100867.41;4990840;28;19925;-64
2022/12/15 12:18:04;;;;;;;;;;;;;;;-2.70;100.00;100863.03;4992551;28;20401;-64
2022/12/15 12:20:53;;;;;;;;;;;;;;;-2.64;100.00;100855.91;4992384;28;19921;-64
2022/12/15 12:23:21;;;;;;;;;;;;;;;-2.62;100.00;100851.94;4986709;28;19921;-64
2022/12/15 12:25:57;;;;;;;;;;;;;;;-2.59;100.00;100856.06;4991671;28;19914;-65
2022/12/15 12:28:27;;;;;;;;;;;;;;;-2.56;100.00;100853.75;4992409;28;19913;-65
2022/12/15 12:30:53;;;;;;;;;;;;;;;-2.53;100.00;100850.63;4992324;28;19914;-64
2022/12/15 12:33:21;;;;;;;;;;;;;;;-2.50;100.00;100843.91;4992086;28;19920;-64
2022/12/15 12:35:54;;;;;;;;;;;;;;;-2.47;100.00;100840.78;4992122;28;19913;-64
2022/12/15 12:38:32;;;;;;;;;;;;;;;-2.40;100.00;100840.72;4992197;28;20028;-64
2022/12/15 12:41:10;;;;;;;;;;;;;;;-2.33;100.00;100838.81;4990693;28;19937;-64
2022/12/15 12:43:39;;;;;;;;;;;;;;;-2.27;100.00;100846.03;4990723;28;19925;-64
2022/12/15 12:46:16;;;;;;;;;;;;;;;-2.23;100.00;100841.00;4992263;28;19944;-64
2022/12/15 12:48:48;;;;;;;;;;;;;;;-2.14;100.00;100844.28;4992148;28;19997;-64
2022/12/15 12:51:23;;;;;;;;;;;;;;;-2.08;100.00;100843.38;4992021;28;20383;-64
2022/12/15 12:53:48;;;;;;;;;;;;;;;-1.99;100.00;100844.75;4990437;28;20075;-64
2022/12/15 12:56:31;;;;;;;;;;;;;;;-1.87;100.00;100831.28;5009403;28;20016;-64
2022/12/15 12:58:57;;;;;;;;;;;;;;;-1.70;100.00;100836.16;5011287;28;19924;-64
2022/12/15 13:01:32;;;;;;;;;;;;;;;-1.61;100.00;100835.63;5011424;28;19917;-64
2022/12/15 13:04:08;;;;;;;;;;;;;;;-1.54;100.00;100832.00;5011387;28;19924;-64
2022/12/15 13:06:33;;;;;;;;;;;;;;;-1.50;100.00;100830.50;5011421;28;20281;-64
2022/12/15 13:09:18;;;;;;;;;;;;;;;-1.41;100.00;100826.44;5011422;28;19920;-64
2022/12/15 13:11:54;;;;;;;;;;;;;;;-1.32;99.44;100806.06;5011207;28;19952;-64
2022/12/15 13:14:26;;;;;;;;;;;;;;;-1.28;99.40;100814.59;5011703;28;20004;-64
2022/12/15 13:17:15;;;;;;;;;;;;;;;-1.23;98.50;100800.34;5011525;28;20265;-64
2022/12/15 13:19:52;;;;;;;;;;;;;;;-1.20;98.20;100800.69;5008499;28;19920;-64
2022/12/15 13:22:22;;;;;;;;;;;;;;;-1.16;98.02;100792.91;5011371;28;20273;-64
2022/12/15 13:24:50;;;;;;;;;;;;;;;-1.10;99.36;100798.28;5010992;28;19913;-64
2022/12/15 13:27:15;;;;;;;;;;;;;;;-1.09;100.00;100788.25;5011156;28;20345;-64
2022/12/15 13:29:54;;;;;;;;;;;;;;;-1.02;100.00;100793.56;5010927;28;19913;-64
2022/12/15 13:32:28;;;;;;;;;;;;;;;-0.95;100.00;100791.63;5011217;28;19913;-64
2022/12/15 13:34:53;;;;;;;;;;;;;;;-0.77;99.14;100782.56;5011116;28;20056;-64
2022/12/15 13:37:39;;;;;;;;;;;;;;;-0.73;99.08;100782.91;5013497;28;20040;-64
2022/12/15 13:40:23;;;;;;;;;;;;;;;-0.69;98.45;100786.84;5007169;28;19925;-64
2022/12/15 13:42:55;;;;;;;;;;;;;;;-0.68;98.19;100783.88;5013371;28;19913;-64
2022/12/15 13:45:28;;;;;;;;;;;;;;;-0.74;97.87;100775.81;5012913;28;20358;-63
2022/12/15 13:47:55;;;;;;;;;;;;;;;-0.81;98.35;100786.81;5013244;28;19921;-64
2022/12/15 13:50:29;;;;;;;;;;;;;;;-0.87;96.99;100782.28;5012588;28;20377;-63
2022/12/15 13:52:55;;;;;;;;;;;;;;;-0.95;97.02;100789.72;5012983;28;19917;-64
2022/12/15 13:55:25;;;;;;;;;;;;;;;-0.95;98.00;100789.72;5012890;28;19983;-64
2022/12/15 13:57:54;;;;;;;;;;;;;;;-0.93;97.44;100786.75;5013049;28;20325;-64
2022/12/15 14:00:19;;;;;;;;;;;;;;;-0.89;98.24;100796.13;5014195;28;19913;-64
2022/12/15 14:02:45;;;;;;;;;;;;;;;-0.87;97.92;100791.28;5014294;28;19927;-64
2022/12/15 14:05:13;;;;;;;;;;;;;;;-0.80;98.43;100786.56;5014446;28;19933;-64
2022/12/15 14:07:44;;;;;;;;;;;;;;;-0.77;98.61;100787.19;5014527;28;19964;-64
2022/12/15 14:10:18;;;;;;;;;;;;;;;-0.80;98.87;100785.72;5014051;28;19921;-64
2022/12/15 14:12:44;;;;;;;;;;;;;;;-0.82;98.21;100783.25;5014224;28;20004;-64
2022/12/15 14:15:13;;;;;;;;;;;;;;;-0.80;99.17;100783.00;5014107;28;19949;-64
2022/12/15 14:17:39;;;;;;;;;;;;;;;-0.82;98.09;100777.81;5013974;28;19913;-64
2022/12/15 14:20:11;;;;;;;;;;;;;;;-0.82;98.62;100777.81;5014105;28;19920;-64
2022/12/15 14:22:40;;;;;;;;;;;;;;;-0.82;99.79;100779.72;5013880;28;20330;-64
2022/12/15 14:25:13;;;;;;;;;;;;;;;-0.86;99.25;100778.53;5013642;28;19925;-65
2022/12/15 14:27:38;;;;;;;;;;;;;;;-0.89;98.88;100760.81;5013979;28;19929;-64
2022/12/15 14:30:21;;;;;;;;;;;;;;;-0.91;98.58;100757.47;5013737;28;19928;-64
2022/12/15 14:32:53;;;;;;;;;;;;;;;-0.92;98.72;100763.16;5012476;28;20602;-64
2022/12/15 14:35:24;;;;;;;;;;;;;;;-0.94;98.08;100760.66;5013748;28;20387;-64
2022/12/15 14:37:50;;;;;;;;;;;;;;;-0.96;98.69;100768.22;5010061;28;20000;-64
2022/12/15 14:40:16;;;;;;;;;;;;;;;-1.00;99.10;100757.00;5013324;28;20067;-64
2022/12/15 14:42:42;;;;;;;;;;;;;;;-1.04;97.94;100758.50;5013462;28;19958;-64
2022/12/15 14:45:18;;;;;;;;;;;;;;;-1.08;98.21;100756.50;5013377;28;20012;-64
2022/12/15 14:47:49;;;;;;;;;;;;;;;-1.13;98.51;100754.47;5010070;28;19917;-64
2022/12/15 14:50:15;;;;;;;;;;;;;;;-1.20;98.68;100746.41;5013520;28;20448;-64
2022/12/15 14:52:41;;;;;;;;;;;;;;;-1.28;98.77;100744.00;5011858;28;20369;-64
2022/12/15 14:55:30;;;;;;;;;;;;;;;-1.34;98.90;100750.38;5013329;28;20004;-64
2022/12/15 14:57:55;;;;;;;;;;;;;;;-1.44;98.32;100734.63;5009989;28;19914;-64
2022/12/15 15:00:31;;;;;;;;;;;;;;;-1.48;98.74;100738.88;5013212;28;19925;-64